createdAt,value
2024-05-09T00:00:39.843Z,100.00
2024-05-09T00:05:38.104Z,100.00
2024-05-09T00:10:37.686Z,100.00
2024-05-09T00:15:36.441Z,100.00
2024-05-09T00:20:38.718Z,100.00
2024-05-09T00:25:40.875Z,100.00
2024-05-09T00:30:37.914Z,100.00
2024-05-09T00:35:35.331Z,100.00
2024-05-09T00:40:40.638Z,100.00
2024-05-09T00:45:39.326Z,100.00
2024-05-09T00:50:39.145Z,100.00
2024-05-09T00:55:39.034Z,100.00
2024-05-09T01:00:39.803Z,100.00
2024-05-09T01:05:39.568Z,100.00
2024-05-09T01:10:37.490Z,100.00
2024-05-09T01:15:35.722Z,100.00
2024-05-09T01:20:40.894Z,100.00
2024-05-09T01:25:40.929Z,100.00
2024-05-09T01:30:38.413Z,100.00
2024-05-09T01:35:35.470Z,100.00
2024-05-09T01:40:37.853Z,100.00
2024-05-09T01:45:36.770Z,100.00
2024-05-09T01:50:38.567Z,100.00
2024-05-09T01:55:39.356Z,100.00
2024-05-09T02:00:40.339Z,100.00
2024-05-09T02:05:39.714Z,100.00
2024-05-09T02:10:36.476Z,100.00
2024-05-09T02:15:33.325Z,100.00
2024-05-09T02:20:35.972Z,100.00
2024-05-09T02:25:35.429Z,100.00
2024-05-09T02:30:40.276Z,100.00
2024-05-09T02:35:38.685Z,100.00
2024-05-09T02:40:38.196Z,100.00
2024-05-09T02:45:36.193Z,100.00
2024-05-09T02:50:38.078Z,100.00
2024-05-09T02:55:38.270Z,100.00
2024-05-09T03:00:39.427Z,100.00
2024-05-09T03:05:38.724Z,100.00
2024-05-09T03:10:37.858Z,100.00
2024-05-09T03:15:35.965Z,100.00
2024-05-09T03:20:35.751Z,100.00
2024-05-09T03:25:34.547Z,100.00
2024-05-09T03:30:39.809Z,100.00
2024-05-09T03:35:39.215Z,100.00
2024-05-09T03:40:35.976Z,100.00
2024-05-09T03:45:32.675Z,100.00
2024-05-09T03:50:33.967Z,100.00
2024-05-09T03:55:32.741Z,100.00
2024-05-09T04:00:36.943Z,100.00
2024-05-09T04:05:35.746Z,100.00
2024-05-09T04:10:34.321Z,100.00
2024-05-09T04:15:32.396Z,100.00
2024-05-09T04:20:37.394Z,100.00
2024-05-09T04:25:37.259Z,100.00
2024-05-09T04:30:38.863Z,100.00
2024-05-09T04:35:38.050Z,100.00
2024-05-09T04:40:36.885Z,100.00
2024-05-09T04:45:35.069Z,100.00
2024-05-09T04:50:37.021Z,100.00
2024-05-09T04:55:36.418Z,100.00
2024-05-09T05:00:37.133Z,100.00
2024-05-09T05:05:40.328Z,100.00
2024-05-09T05:10:37.244Z,100.00
2024-05-09T05:15:33.987Z,100.00
2024-05-09T05:20:33.685Z,100.00
2024-05-09T05:25:31.159Z,100.00
2024-05-09T05:30:32.774Z,100.00
2024-05-09T05:35:31.661Z,100.00
2024-05-09T05:40:36.040Z,100.00
2024-05-09T05:45:35.447Z,100.00
2024-05-09T05:50:36.131Z,100.00
2024-05-09T05:55:34.719Z,100.00
2024-05-09T06:00:38.340Z,100.00
2024-05-09T06:05:38.918Z,100.00
2024-05-09T06:10:39.368Z,100.00
2024-05-09T06:15:37.661Z,100.00
2024-05-09T06:20:37.148Z,100.00
2024-05-09T06:25:36.077Z,100.00
2024-05-09T06:35:34.086Z,97.42
2024-05-09T06:40:37.349Z,95.10
2024-05-09T06:45:37.170Z,93.99
2024-05-09T06:50:37.725Z,90.81
2024-05-09T06:55:37.354Z,97.17
2024-05-09T07:00:39.326Z,89.62
2024-05-09T07:05:38.021Z,91.54
2024-05-09T07:10:36.514Z,85.43
2024-05-09T07:15:33.738Z,84.95
2024-05-09T07:20:34.577Z,86.97
2024-05-09T07:25:32.015Z,86.48
2024-05-09T07:30:33.471Z,85.02
2024-05-09T07:35:31.797Z,82.56
2024-05-09T07:40:35.131Z,82.33
2024-05-09T07:55:39.543Z,79.35
2024-05-09T08:00:36.417Z,76.62
2024-05-09T08:05:33.415Z,77.44
2024-05-09T08:10:30.424Z,76.61
2024-05-09T08:15:27.286Z,74.50
2024-05-09T08:20:30.998Z,75.43
2024-05-09T08:25:31.673Z,72.03
2024-05-09T08:30:33.256Z,69.84
2024-05-09T08:35:33.672Z,66.86
2024-05-09T08:40:35.935Z,67.10
2024-05-09T08:45:35.916Z,66.49
2024-05-09T08:50:38.671Z,64.31
2024-05-09T08:55:40.600Z,65.68
2024-05-09T09:00:42.234Z,62.54
2024-05-09T09:05:40.909Z,60.35
2024-05-09T09:10:39.890Z,58.61
2024-05-09T09:15:47.400Z,55.69
2024-05-09T09:20:45.302Z,57.28
2024-05-09T09:25:42.558Z,56.56
2024-05-09T09:30:43.020Z,59.78
2024-05-09T09:35:40.764Z,60.27
2024-05-09T09:40:42.862Z,58.84
2024-05-09T09:45:44.314Z,58.08
2024-05-09T09:50:42.203Z,56.27
2024-05-09T09:55:40.338Z,54.91
2024-05-09T10:00:37.234Z,56.05
2024-05-09T10:05:34.855Z,56.38
2024-05-09T10:10:34.465Z,58.70
2024-05-09T10:15:45.369Z,56.62
2024-05-09T10:20:46.589Z,56.09
2024-05-09T10:25:43.354Z,57.14
2024-05-09T10:30:43.013Z,56.88
2024-05-09T10:35:51.153Z,53.69
2024-05-09T10:40:49.434Z,52.42
2024-05-09T10:45:46.139Z,54.89
2024-05-09T10:50:43.949Z,55.69
2024-05-09T10:55:40.866Z,54.56
2024-05-09T11:00:37.860Z,54.52
2024-05-09T11:05:35.953Z,53.45
2024-05-09T11:10:34.415Z,56.76
2024-05-09T11:15:39.459Z,55.61
2024-05-09T11:20:37.443Z,54.89
2024-05-09T11:25:34.543Z,52.62
2024-05-09T11:30:35.323Z,51.56
2024-05-09T11:35:33.186Z,53.11
2024-05-09T11:40:34.230Z,53.45
2024-05-09T11:45:31.493Z,55.83
2024-05-09T11:50:33.012Z,55.89
2024-05-09T11:55:36.506Z,54.60
2024-05-09T12:00:37.146Z,54.36
2024-05-09T12:05:34.909Z,54.85
2024-05-09T12:10:34.442Z,52.78
2024-05-09T12:15:32.929Z,53.79
2024-05-09T12:20:36.217Z,52.00
2024-05-09T12:25:36.805Z,50.64
2024-05-09T12:30:38.182Z,52.78
2024-05-09T12:35:37.003Z,51.75
2024-05-09T12:40:37.075Z,52.64
2024-05-09T12:45:35.611Z,50.15
2024-05-09T12:50:34.231Z,52.03
2024-05-09T12:55:40.403Z,50.61
2024-05-09T13:00:45.318Z,50.64
2024-05-09T13:05:44.840Z,51.41
2024-05-09T13:10:42.619Z,52.33
2024-05-09T13:15:39.531Z,49.17
2024-05-09T13:20:37.156Z,50.95
2024-05-09T13:25:37.768Z,48.27
2024-05-09T13:30:39.950Z,50.94
2024-05-09T13:35:38.697Z,52.45
2024-05-09T13:40:36.597Z,51.54
2024-05-09T13:45:34.385Z,49.24
2024-05-09T13:50:35.148Z,48.14
2024-05-09T13:55:33.710Z,46.43
2024-05-09T14:00:42.261Z,45.62
2024-05-09T14:05:44.271Z,47.48
2024-05-09T14:10:44.770Z,47.13
2024-05-09T14:15:41.843Z,49.34
2024-05-09T14:20:38.522Z,47.18
2024-05-09T14:25:40.461Z,46.52
2024-05-09T14:30:39.646Z,48.06
2024-05-09T14:35:38.249Z,51.49
2024-05-09T14:40:41.867Z,50.70
2024-05-09T14:45:41.024Z,48.35
2024-05-09T14:50:39.818Z,48.94
2024-05-09T14:55:42.859Z,45.70
2024-05-09T15:00:46.261Z,49.04
2024-05-09T15:05:47.556Z,50.14
2024-05-09T15:10:44.628Z,49.74
2024-05-09T15:15:42.022Z,47.91
2024-05-09T15:20:40.652Z,46.20
2024-05-09T15:25:37.987Z,47.26
2024-05-09T15:30:35.459Z,47.31
2024-05-09T15:35:32.454Z,47.41
2024-05-09T15:40:36.217Z,48.50
2024-05-09T15:45:36.576Z,50.46
2024-05-09T15:50:38.750Z,49.42
2024-05-09T15:55:38.685Z,47.06
2024-05-09T16:00:40.271Z,48.58
2024-05-09T16:05:39.522Z,50.47
2024-05-09T16:10:38.779Z,49.59
2024-05-09T16:15:35.992Z,47.64
2024-05-09T16:20:39.047Z,48.31
2024-05-09T16:25:45.407Z,47.72
2024-05-09T16:30:42.240Z,50.65
2024-05-09T16:35:39.619Z,49.48
2024-05-09T16:40:39.949Z,53.86
2024-05-09T16:45:39.809Z,51.72
2024-05-09T16:50:37.086Z,48.87
2024-05-09T16:55:34.587Z,47.88
2024-05-09T17:00:39.639Z,49.34
2024-05-09T17:05:40.349Z,51.69
2024-05-09T17:10:37.507Z,51.62
2024-05-09T17:15:35.187Z,53.10
2024-05-09T17:20:35.294Z,55.18
2024-05-09T17:25:34.332Z,56.62
2024-05-09T17:30:35.580Z,55.95
2024-05-09T17:35:35.376Z,58.42
2024-05-09T17:40:35.814Z,58.04
2024-05-09T17:45:34.518Z,58.75
2024-05-09T17:50:35.582Z,60.35
2024-05-09T17:55:35.039Z,60.99
2024-05-09T18:00:38.712Z,58.93
2024-05-09T18:05:38.557Z,58.29
2024-05-09T18:10:38.668Z,60.77
2024-05-09T18:15:37.005Z,61.30
2024-05-09T18:20:41.831Z,61.53
2024-05-09T18:25:42.494Z,62.61
2024-05-09T18:30:40.567Z,64.63
2024-05-09T18:35:37.383Z,64.91
2024-05-09T18:40:36.790Z,65.86
2024-05-09T18:45:35.107Z,67.08
2024-05-09T18:50:36.073Z,68.05
2024-05-09T18:55:35.786Z,69.62
2024-05-09T19:00:36.444Z,70.25
2024-05-09T19:05:36.426Z,71.41
2024-05-09T19:10:35.108Z,72.46
2024-05-09T19:15:32.812Z,73.44
2024-05-09T19:20:34.248Z,74.35
2024-05-09T19:25:33.138Z,74.99
2024-05-09T19:30:37.879Z,75.82
2024-05-09T19:35:37.887Z,76.44
2024-05-09T19:40:35.521Z,77.16
2024-05-09T19:45:33.728Z,77.40
2024-05-09T19:50:37.901Z,77.65
2024-05-09T19:55:40.429Z,77.40
2024-05-09T20:00:40.087Z,78.44
2024-05-09T20:05:39.632Z,78.34
2024-05-09T20:10:37.129Z,77.92
2024-05-09T20:15:35.604Z,78.25
2024-05-09T20:20:38.216Z,79.03
2024-05-09T20:25:38.517Z,80.12
2024-05-09T20:30:36.138Z,80.70
2024-05-09T20:35:33.472Z,81.03
2024-05-09T20:40:34.396Z,81.96
2024-05-09T20:45:34.532Z,82.32
2024-05-09T20:50:38.146Z,82.77
2024-05-09T20:55:37.943Z,83.41
2024-05-09T21:00:39.729Z,85.04
2024-05-09T21:05:40.530Z,86.11
2024-05-09T21:10:37.985Z,87.41
2024-05-09T21:15:35.868Z,89.92
2024-05-09T21:20:34.936Z,92.23
2024-05-09T21:25:32.377Z,92.19
2024-05-09T21:30:38.526Z,92.26
2024-05-09T21:35:38.917Z,94.66
2024-05-09T21:40:37.464Z,97.96
2024-05-09T21:45:35.633Z,98.95
2024-05-09T21:50:39.327Z,98.96
2024-05-09T21:55:38.351Z,100.00
2024-05-09T22:00:38.140Z,100.00
2024-05-09T22:05:36.543Z,100.00
2024-05-09T22:10:35.636Z,100.00
2024-05-09T22:15:37.300Z,100.00
2024-05-09T22:20:38.291Z,100.00
2024-05-09T22:25:36.927Z,100.00
2024-05-09T22:30:37.759Z,100.00
2024-05-09T22:35:36.457Z,100.00
2024-05-09T22:40:42.734Z,100.00
2024-05-09T22:45:44.675Z,100.00
2024-05-09T22:50:41.750Z,100.00
2024-05-09T22:55:38.357Z,100.00
2024-05-09T23:00:35.472Z,100.00
2024-05-09T23:05:32.988Z,100.00
2024-05-09T23:10:35.734Z,100.00
2024-05-09T23:15:34.677Z,100.00
2024-05-09T23:20:37.132Z,100.00
2024-05-09T23:25:37.371Z,100.00
2024-05-09T23:30:38.445Z,100.00
2024-05-09T23:35:37.284Z,100.00
2024-05-09T23:40:39.480Z,100.00
2024-05-09T23:45:38.593Z,100.00
2024-05-09T23:50:37.944Z,100.00
2024-05-09T23:55:36.305Z,100.00
